sensor_id;sensor_type;location;lat;lon;timestamp;P1;durP1;ratioP1;P2;durP2;ratioP2
58898;SDS011;44680;48.342;7.856;2022-12-29T00:00:51;6.32;;;3.30;;
58898;SDS011;44680;48.342;7.856;2022-12-29T00:03:17;11.63;;;3.78;;
58898;SDS011;44680;48.342;7.856;2022-12-29T00:05:42;6.40;;;4.07;;
58898;SDS011;44680;48.342;7.856;2022-12-29T00:08:07;7.28;;;2.90;;
58898;SDS011;44680;48.342;7.856;2022-12-29T00:10:32;7.43;;;2.90;;
58898;SDS011;44680;48.342;7.856;2022-12-29T00:12:58;5.22;;;2.70;;
58898;SDS011;44680;48.342;7.856;2022-12-29T00:15:42;7.47;;;3.23;;
58898;SDS011;44680;48.342;7.856;2022-12-29T00:18:07;2.50;;;2.30;;
58898;SDS011;44680;48.342;7.856;2022-12-29T00:20:33;6.32;;;3.03;;
58898;SDS011;44680;48.342;7.856;2022-12-29T00:23:19;4.47;;;2.55;;
58898;SDS011;44680;48.342;7.856;2022-12-29T00:26:03;5.25;;;2.30;;
58898;SDS011;44680;48.342;7.856;2022-12-29T00:28:47;5.57;;;3.10;;
58898;SDS011;44680;48.342;7.856;2022-12-29T00:31:31;4.70;;;2.80;;
58898;SDS011;44680;48.342;7.856;2022-12-29T00:34:15;5.97;;;2.60;;
58898;SDS011;44680;48.342;7.856;2022-12-29T00:36:59;5.03;;;2.73;;
58898;SDS011;44680;48.342;7.856;2022-12-29T00:39:25;5.55;;;2.35;;
58898;SDS011;44680;48.342;7.856;2022-12-29T00:42:09;4.55;;;2.40;;
58898;SDS011;44680;48.342;7.856;2022-12-29T00:44:53;7.70;;;2.90;;
58898;SDS011;44680;48.342;7.856;2022-12-29T00:47:18;3.15;;;2.33;;
58898;SDS011;44680;48.342;7.856;2022-12-29T00:49:43;5.03;;;2.53;;
58898;SDS011;44680;48.342;7.856;2022-12-29T00:52:10;5.45;;;3.10;;
58898;SDS011;44680;48.342;7.856;2022-12-29T00:54:37;3.50;;;2.60;;
58898;SDS011;44680;48.342;7.856;2022-12-29T00:57:03;9.13;;;3.08;;
58898;SDS011;44680;48.342;7.856;2022-12-29T00:59:30;3.63;;;2.42;;
58898;SDS011;44680;48.342;7.856;2022-12-29T01:01:55;5.78;;;2.53;;
58898;SDS011;44680;48.342;7.856;2022-12-29T01:04:21;6.88;;;2.70;;
58898;SDS011;44680;48.342;7.856;2022-12-29T01:06:48;4.53;;;2.45;;
58898;SDS011;44680;48.342;7.856;2022-12-29T01:09:13;6.30;;;2.70;;
58898;SDS011;44680;48.342;7.856;2022-12-29T01:11:57;2.50;;;2.27;;
58898;SDS011;44680;48.342;7.856;2022-12-29T01:14:23;4.30;;;2.83;;
58898;SDS011;44680;48.342;7.856;2022-12-29T01:16:48;3.85;;;2.83;;
58898;SDS011;44680;48.342;7.856;2022-12-29T01:19:14;3.45;;;2.50;;
58898;SDS011;44680;48.342;7.856;2022-12-29T01:21:39;6.13;;;2.40;;
58898;SDS011;44680;48.342;7.856;2022-12-29T01:24:05;2.92;;;2.45;;
58898;SDS011;44680;48.342;7.856;2022-12-29T01:26:30;4.28;;;2.65;;
58898;SDS011;44680;48.342;7.856;2022-12-29T01:28:56;2.45;;;2.25;;
58898;SDS011;44680;48.342;7.856;2022-12-29T01:31:21;2.83;;;2.60;;
58898;SDS011;44680;48.342;7.856;2022-12-29T01:33:46;2.75;;;2.40;;
58898;SDS011;44680;48.342;7.856;2022-12-29T01:36:13;6.50;;;2.92;;
58898;SDS011;44680;48.342;7.856;2022-12-29T01:38:39;6.32;;;2.65;;
58898;SDS011;44680;48.342;7.856;2022-12-29T01:41:05;8.20;;;2.88;;
58898;SDS011;44680;48.342;7.856;2022-12-29T01:43:45;6.40;;;2.63;;
58898;SDS011;44680;48.342;7.856;2022-12-29T01:49:11;4.18;;;2.67;;
58898;SDS011;44680;48.342;7.856;2022-12-29T01:51:40;3.95;;;2.38;;
58898;SDS011;44680;48.342;7.856;2022-12-29T01:54:10;5.90;;;2.80;;
58898;SDS011;44680;48.342;7.856;2022-12-29T01:56:38;2.53;;;2.25;;
58898;SDS011;44680;48.342;7.856;2022-12-29T01:59:15;3.38;;;2.55;;
58898;SDS011;44680;48.342;7.856;2022-12-29T02:01:43;5.22;;;2.88;;
58898;SDS011;44680;48.342;7.856;2022-12-29T02:04:09;4.10;;;2.35;;
58898;SDS011;44680;48.342;7.856;2022-12-29T02:06:50;3.45;;;2.80;;
58898;SDS011;44680;48.342;7.856;2022-12-29T02:09:17;5.95;;;2.80;;
58898;SDS011;44680;48.342;7.856;2022-12-29T02:11:42;3.78;;;2.88;;
58898;SDS011;44680;48.342;7.856;2022-12-29T02:14:11;3.47;;;2.30;;
58898;SDS011;44680;48.342;7.856;2022-12-29T02:16:43;7.25;;;3.05;;
58898;SDS011;44680;48.342;7.856;2022-12-29T02:19:17;3.00;;;2.72;;
58898;SDS011;44680;48.342;7.856;2022-12-29T02:30:36;5.50;;;2.85;;
58898;SDS011;44680;48.342;7.856;2022-12-29T02:38:52;4.82;;;2.72;;
58898;SDS011;44680;48.342;7.856;2022-12-29T02:41:37;8.98;;;2.97;;
58898;SDS011;44680;48.342;7.856;2022-12-29T02:44:20;3.92;;;2.80;;
58898;SDS011;44680;48.342;7.856;2022-12-29T02:46:53;4.70;;;2.38;;
58898;SDS011;44680;48.342;7.856;2022-12-29T02:49:26;3.22;;;2.30;;
58898;SDS011;44680;48.342;7.856;2022-12-29T02:54:32;9.13;;;3.00;;
58898;SDS011;44680;48.342;7.856;2022-12-29T02:57:11;4.50;;;2.70;;
58898;SDS011;44680;48.342;7.856;2022-12-29T02:59:41;4.38;;;2.85;;
58898;SDS011;44680;48.342;7.856;2022-12-29T03:02:17;6.60;;;2.92;;
58898;SDS011;44680;48.342;7.856;2022-12-29T03:05:05;5.78;;;3.20;;
58898;SDS011;44680;48.342;7.856;2022-12-29T03:07:40;4.15;;;2.55;;
58898;SDS011;44680;48.342;7.856;2022-12-29T03:10:27;10.13;;;3.08;;
58898;SDS011;44680;48.342;7.856;2022-12-29T03:16:01;6.07;;;2.63;;
58898;SDS011;44680;48.342;7.856;2022-12-29T03:21:44;6.43;;;3.20;;
58898;SDS011;44680;48.342;7.856;2022-12-29T03:24:29;4.13;;;3.72;;
58898;SDS011;44680;48.342;7.856;2022-12-29T03:26:58;5.32;;;2.97;;
58898;SDS011;44680;48.342;7.856;2022-12-29T03:29:24;3.58;;;2.90;;
58898;SDS011;44680;48.342;7.856;2022-12-29T03:31:52;4.95;;;3.08;;
58898;SDS011;44680;48.342;7.856;2022-12-29T03:34:19;4.10;;;2.88;;
58898;SDS011;44680;48.342;7.856;2022-12-29T03:36:53;6.10;;;2.78;;
58898;SDS011;44680;48.342;7.856;2022-12-29T03:39:30;5.28;;;3.05;;
58898;SDS011;44680;48.342;7.856;2022-12-29T03:41:58;4.47;;;3.20;;
58898;SDS011;44680;48.342;7.856;2022-12-29T03:44:36;5.72;;;3.20;;
58898;SDS011;44680;48.342;7.856;2022-12-29T03:47:06;4.70;;;2.92;;
58898;SDS011;44680;48.342;7.856;2022-12-29T03:49:32;5.40;;;3.08;;
58898;SDS011;44680;48.342;7.856;2022-12-29T03:51:57;5.65;;;3.00;;
58898;SDS011;44680;48.342;7.856;2022-12-29T03:54:22;4.53;;;3.05;;
58898;SDS011;44680;48.342;7.856;2022-12-29T03:56:48;6.45;;;3.40;;
58898;SDS011;44680;48.342;7.856;2022-12-29T03:59:13;5.90;;;3.40;;
58898;SDS011;44680;48.342;7.856;2022-12-29T04:01:38;4.70;;;3.38;;
58898;SDS011;44680;48.342;7.856;2022-12-29T04:04:04;7.35;;;3.20;;
58898;SDS011;44680;48.342;7.856;2022-12-29T04:06:29;5.80;;;3.17;;
58898;SDS011;44680;48.342;7.856;2022-12-29T04:08:54;7.85;;;3.35;;
58898;SDS011;44680;48.342;7.856;2022-12-29T04:11:20;4.45;;;3.20;;
58898;SDS011;44680;48.342;7.856;2022-12-29T04:13:46;5.15;;;3.30;;
58898;SDS011;44680;48.342;7.856;2022-12-29T04:16:11;5.15;;;3.50;;
58898;SDS011;44680;48.342;7.856;2022-12-29T04:18:37;5.63;;;3.50;;
58898;SDS011;44680;48.342;7.856;2022-12-29T04:21:02;12.23;;;3.63;;
58898;SDS011;44680;48.342;7.856;2022-12-29T04:23:29;6.00;;;3.75;;
58898;SDS011;44680;48.342;7.856;2022-12-29T04:25:55;5.93;;;3.05;;
58898;SDS011;44680;48.342;7.856;2022-12-29T04:28:20;5.15;;;3.70;;
58898;SDS011;44680;48.342;7.856;2022-12-29T04:30:46;4.25;;;3.40;;
58898;SDS011;44680;48.342;7.856;2022-12-29T04:33:11;4.18;;;3.10;;
58898;SDS011;44680;48.342;7.856;2022-12-29T04:35:37;6.05;;;3.58;;
58898;SDS011;44680;48.342;7.856;2022-12-29T04:38:02;5.63;;;3.30;;
58898;SDS011;44680;48.342;7.856;2022-12-29T04:40:28;9.65;;;3.50;;
58898;SDS011;44680;48.342;7.856;2022-12-29T04:42:53;4.13;;;3.40;;
58898;SDS011;44680;48.342;7.856;2022-12-29T04:45:18;4.63;;;3.60;;
58898;SDS011;44680;48.342;7.856;2022-12-29T04:47:44;6.70;;;3.65;;
58898;SDS011;44680;48.342;7.856;2022-12-29T04:50:09;8.82;;;3.80;;
58898;SDS011;44680;48.342;7.856;2022-12-29T04:52:35;3.05;;;2.75;;
58898;SDS011;44680;48.342;7.856;2022-12-29T04:55:00;3.72;;;3.40;;
58898;SDS011;44680;48.342;7.856;2022-12-29T04:57:26;3.22;;;2.92;;
58898;SDS011;44680;48.342;7.856;2022-12-29T04:59:51;4.60;;;3.25;;
58898;SDS011;44680;48.342;7.856;2022-12-29T05:02:17;6.20;;;3.60;;
58898;SDS011;44680;48.342;7.856;2022-12-29T05:04:42;4.82;;;3.30;;
58898;SDS011;44680;48.342;7.856;2022-12-29T05:07:08;3.60;;;3.30;;
58898;SDS011;44680;48.342;7.856;2022-12-29T05:09:33;6.88;;;3.55;;
58898;SDS011;44680;48.342;7.856;2022-12-29T05:11:58;4.18;;;3.00;;
58898;SDS011;44680;48.342;7.856;2022-12-29T05:14:24;4.75;;;3.17;;
58898;SDS011;44680;48.342;7.856;2022-12-29T05:16:49;4.53;;;3.28;;
58898;SDS011;44680;48.342;7.856;2022-12-29T05:19:15;6.00;;;3.30;;
58898;SDS011;44680;48.342;7.856;2022-12-29T05:21:41;6.35;;;3.47;;
58898;SDS011;44680;48.342;7.856;2022-12-29T05:24:07;6.30;;;3.47;;
58898;SDS011;44680;48.342;7.856;2022-12-29T05:26:32;6.22;;;3.20;;
58898;SDS011;44680;48.342;7.856;2022-12-29T05:28:57;5.10;;;3.30;;
58898;SDS011;44680;48.342;7.856;2022-12-29T05:31:23;5.97;;;3.40;;
58898;SDS011;44680;48.342;7.856;2022-12-29T05:33:48;9.10;;;3.38;;
58898;SDS011;44680;48.342;7.856;2022-12-29T05:36:13;6.80;;;3.83;;
58898;SDS011;44680;48.342;7.856;2022-12-29T05:38:39;4.80;;;3.75;;
58898;SDS011;44680;48.342;7.856;2022-12-29T05:41:04;9.10;;;3.50;;
58898;SDS011;44680;48.342;7.856;2022-12-29T05:43:29;5.38;;;3.80;;
58898;SDS011;44680;48.342;7.856;2022-12-29T05:45:55;6.57;;;3.42;;
58898;SDS011;44680;48.342;7.856;2022-12-29T05:48:21;6.25;;;3.40;;
58898;SDS011;44680;48.342;7.856;2022-12-29T05:50:47;4.85;;;3.35;;
58898;SDS011;44680;48.342;7.856;2022-12-29T05:53:13;5.70;;;3.20;;
58898;SDS011;44680;48.342;7.856;2022-12-29T05:55:39;8.00;;;3.33;;
58898;SDS011;44680;48.342;7.856;2022-12-29T05:58:04;4.60;;;3.50;;
58898;SDS011;44680;48.342;7.856;2022-12-29T06:00:29;4.63;;;3.70;;
58898;SDS011;44680;48.342;7.856;2022-12-29T06:02:55;6.32;;;3.53;;
58898;SDS011;44680;48.342;7.856;2022-12-29T06:05:20;5.10;;;3.50;;
58898;SDS011;44680;48.342;7.856;2022-12-29T06:07:45;5.97;;;3.40;;
58898;SDS011;44680;48.342;7.856;2022-12-29T06:10:11;3.60;;;3.05;;
58898;SDS011;44680;48.342;7.856;2022-12-29T06:12:36;4.38;;;3.17;;
58898;SDS011;44680;48.342;7.856;2022-12-29T06:15:01;6.93;;;3.20;;
58898;SDS011;44680;48.342;7.856;2022-12-29T06:17:27;4.25;;;3.33;;
58898;SDS011;44680;48.342;7.856;2022-12-29T06:19:52;6.13;;;3.53;;
58898;SDS011;44680;48.342;7.856;2022-12-29T06:22:18;6.15;;;3.53;;
58898;SDS011;44680;48.342;7.856;2022-12-29T06:24:43;5.43;;;3.30;;
58898;SDS011;44680;48.342;7.856;2022-12-29T06:27:08;9.90;;;3.83;;
58898;SDS011;44680;48.342;7.856;2022-12-29T06:29:34;7.13;;;3.95;;
58898;SDS011;44680;48.342;7.856;2022-12-29T06:32:01;7.68;;;3.72;;
58898;SDS011;44680;48.342;7.856;2022-12-29T06:34:28;6.55;;;3.60;;
58898;SDS011;44680;48.342;7.856;2022-12-29T06:36:53;7.45;;;3.33;;
58898;SDS011;44680;48.342;7.856;2022-12-29T06:39:19;4.65;;;3.38;;
58898;SDS011;44680;48.342;7.856;2022-12-29T06:41:44;7.50;;;3.85;;
58898;SDS011;44680;48.342;7.856;2022-12-29T06:44:09;6.15;;;3.38;;
58898;SDS011;44680;48.342;7.856;2022-12-29T06:46:35;3.55;;;2.95;;
58898;SDS011;44680;48.342;7.856;2022-12-29T06:49:00;8.38;;;3.50;;
58898;SDS011;44680;48.342;7.856;2022-12-29T06:51:25;6.28;;;3.15;;
58898;SDS011;44680;48.342;7.856;2022-12-29T06:53:51;5.93;;;3.28;;
58898;SDS011;44680;48.342;7.856;2022-12-29T06:56:16;3.70;;;3.17;;
58898;SDS011;44680;48.342;7.856;2022-12-29T06:58:41;6.47;;;3.20;;
58898;SDS011;44680;48.342;7.856;2022-12-29T07:01:07;5.88;;;3.40;;
58898;SDS011;44680;48.342;7.856;2022-12-29T07:03:32;4.32;;;3.08;;
58898;SDS011;44680;48.342;7.856;2022-12-29T07:05:57;4.47;;;3.13;;
58898;SDS011;44680;48.342;7.856;2022-12-29T07:08:23;7.00;;;3.05;;
58898;SDS011;44680;48.342;7.856;2022-12-29T07:10:48;4.03;;;3.20;;
58898;SDS011;44680;48.342;7.856;2022-12-29T07:13:14;4.97;;;3.15;;
58898;SDS011;44680;48.342;7.856;2022-12-29T07:15:39;7.00;;;4.78;;
58898;SDS011;44680;48.342;7.856;2022-12-29T07:18:04;8.88;;;3.95;;
58898;SDS011;44680;48.342;7.856;2022-12-29T07:20:30;6.45;;;3.97;;
58898;SDS011;44680;48.342;7.856;2022-12-29T07:22:56;3.78;;;3.28;;
58898;SDS011;44680;48.342;7.856;2022-12-29T07:25:21;3.72;;;3.28;;
58898;SDS011;44680;48.342;7.856;2022-12-29T07:27:47;8.40;;;3.53;;
58898;SDS011;44680;48.342;7.856;2022-12-29T07:30:12;4.05;;;3.30;;
58898;SDS011;44680;48.342;7.856;2022-12-29T07:32:37;5.72;;;3.10;;
58898;SDS011;44680;48.342;7.856;2022-12-29T07:35:03;4.40;;;3.30;;
58898;SDS011;44680;48.342;7.856;2022-12-29T07:37:28;3.40;;;3.10;;
58898;SDS011;44680;48.342;7.856;2022-12-29T07:39:53;8.05;;;3.45;;
58898;SDS011;44680;48.342;7.856;2022-12-29T07:42:19;6.18;;;3.13;;
58898;SDS011;44680;48.342;7.856;2022-12-29T07:44:44;27.73;;;8.65;;
58898;SDS011;44680;48.342;7.856;2022-12-29T07:47:09;7.30;;;4.05;;
58898;SDS011;44680;48.342;7.856;2022-12-29T07:49:35;7.70;;;3.85;;
58898;SDS011;44680;48.342;7.856;2022-12-29T07:52:00;5.07;;;3.40;;
58898;SDS011;44680;48.342;7.856;2022-12-29T07:54:25;6.13;;;3.08;;
58898;SDS011;44680;48.342;7.856;2022-12-29T07:56:51;14.07;;;6.47;;
58898;SDS011;44680;48.342;7.856;2022-12-29T07:59:16;7.63;;;4.32;;
58898;SDS011;44680;48.342;7.856;2022-12-29T08:01:42;4.18;;;2.42;;
58898;SDS011;44680;48.342;7.856;2022-12-29T08:04:07;3.78;;;2.63;;
58898;SDS011;44680;48.342;7.856;2022-12-29T08:06:32;8.30;;;3.55;;
58898;SDS011;44680;48.342;7.856;2022-12-29T08:08:58;3.20;;;2.95;;
58898;SDS011;44680;48.342;7.856;2022-12-29T08:11:25;3.67;;;3.17;;
58898;SDS011;44680;48.342;7.856;2022-12-29T08:13:51;4.38;;;3.03;;
58898;SDS011;44680;48.342;7.856;2022-12-29T08:16:16;4.47;;;2.95;;
58898;SDS011;44680;48.342;7.856;2022-12-29T08:18:42;4.72;;;3.00;;
58898;SDS011;44680;48.342;7.856;2022-12-29T08:21:07;4.72;;;3.10;;
58898;SDS011;44680;48.342;7.856;2022-12-29T08:23:32;6.40;;;3.10;;
58898;SDS011;44680;48.342;7.856;2022-12-29T08:25:58;5.03;;;3.17;;
58898;SDS011;44680;48.342;7.856;2022-12-29T08:28:24;7.88;;;3.63;;
58898;SDS011;44680;48.342;7.856;2022-12-29T08:30:49;4.63;;;3.45;;
58898;SDS011;44680;48.342;7.856;2022-12-29T08:33:15;9.13;;;3.47;;
58898;SDS011;44680;48.342;7.856;2022-12-29T08:35:40;6.25;;;3.20;;
58898;SDS011;44680;48.342;7.856;2022-12-29T08:38:05;6.20;;;3.05;;
58898;SDS011;44680;48.342;7.856;2022-12-29T08:40:31;4.97;;;3.00;;
58898;SDS011;44680;48.342;7.856;2022-12-29T08:42:56;8.80;;;3.30;;
58898;SDS011;44680;48.342;7.856;2022-12-29T08:45:21;4.80;;;3.05;;
58898;SDS011;44680;48.342;7.856;2022-12-29T08:47:46;6.50;;;2.90;;
58898;SDS011;44680;48.342;7.856;2022-12-29T08:50:12;11.32;;;3.70;;
58898;SDS011;44680;48.342;7.856;2022-12-29T08:52:37;6.15;;;3.20;;
58898;SDS011;44680;48.342;7.856;2022-12-29T08:55:02;5.28;;;2.97;;
58898;SDS011;44680;48.342;7.856;2022-12-29T08:57:28;6.15;;;3.30;;
58898;SDS011;44680;48.342;7.856;2022-12-29T08:59:53;2.90;;;2.55;;
58898;SDS011;44680;48.342;7.856;2022-12-29T09:02:19;6.30;;;3.60;;
58898;SDS011;44680;48.342;7.856;2022-12-29T09:04:44;7.03;;;3.17;;
58898;SDS011;44680;48.342;7.856;2022-12-29T09:07:10;4.03;;;3.17;;
58898;SDS011;44680;48.342;7.856;2022-12-29T09:09:35;8.00;;;3.53;;
58898;SDS011;44680;48.342;7.856;2022-12-29T09:12:01;6.72;;;3.13;;
58898;SDS011;44680;48.342;7.856;2022-12-29T09:14:26;8.52;;;3.90;;
58898;SDS011;44680;48.342;7.856;2022-12-29T09:16:52;7.40;;;3.55;;
58898;SDS011;44680;48.342;7.856;2022-12-29T09:19:36;6.10;;;3.53;;
58898;SDS011;44680;48.342;7.856;2022-12-29T09:22:01;7.85;;;3.55;;
58898;SDS011;44680;48.342;7.856;2022-12-29T09:24:26;3.17;;;2.92;;
58898;SDS011;44680;48.342;7.856;2022-12-29T09:26:52;5.35;;;3.40;;
58898;SDS011;44680;48.342;7.856;2022-12-29T09:29:17;5.78;;;3.28;;
58898;SDS011;44680;48.342;7.856;2022-12-29T09:31:42;8.68;;;3.45;;
58898;SDS011;44680;48.342;7.856;2022-12-29T09:34:07;8.23;;;3.60;;
58898;SDS011;44680;48.342;7.856;2022-12-29T09:36:33;6.90;;;4.20;;
58898;SDS011;44680;48.342;7.856;2022-12-29T09:38:58;4.32;;;3.53;;
58898;SDS011;44680;48.342;7.856;2022-12-29T09:41:25;5.90;;;3.13;;
58898;SDS011;44680;48.342;7.856;2022-12-29T09:43:55;3.85;;;3.03;;
58898;SDS011;44680;48.342;7.856;2022-12-29T09:46:42;5.22;;;3.50;;
58898;SDS011;44680;48.342;7.856;2022-12-29T09:51:44;5.78;;;3.35;;
58898;SDS011;44680;48.342;7.856;2022-12-29T09:57:25;4.30;;;2.78;;
58898;SDS011;44680;48.342;7.856;2022-12-29T10:00:02;5.63;;;2.70;;
58898;SDS011;44680;48.342;7.856;2022-12-29T10:02:52;6.35;;;3.28;;
58898;SDS011;44680;48.342;7.856;2022-12-29T10:05:23;3.75;;;3.03;;
58898;SDS011;44680;48.342;7.856;2022-12-29T10:08:44;5.32;;;3.20;;
58898;SDS011;44680;48.342;7.856;2022-12-29T10:11:15;9.70;;;3.55;;
58898;SDS011;44680;48.342;7.856;2022-12-29T10:17:13;4.90;;;3.00;;
58898;SDS011;44680;48.342;7.856;2022-12-29T10:22:32;5.15;;;3.10;;
58898;SDS011;44680;48.342;7.856;2022-12-29T10:25:19;6.47;;;3.80;;
58898;SDS011;44680;48.342;7.856;2022-12-29T10:27:48;8.77;;;4.03;;
58898;SDS011;44680;48.342;7.856;2022-12-29T10:30:14;3.45;;;3.08;;
58898;SDS011;44680;48.342;7.856;2022-12-29T10:32:47;7.90;;;3.83;;
58898;SDS011;44680;48.342;7.856;2022-12-29T10:35:21;6.05;;;3.20;;
58898;SDS011;44680;48.342;7.856;2022-12-29T10:40:46;5.75;;;3.08;;
58898;SDS011;44680;48.342;7.856;2022-12-29T10:43:25;6.72;;;3.10;;
58898;SDS011;44680;48.342;7.856;2022-12-29T10:45:52;3.35;;;3.05;;
58898;SDS011;44680;48.342;7.856;2022-12-29T10:48:22;3.45;;;3.15;;
58898;SDS011;44680;48.342;7.856;2022-12-29T10:50:50;4.43;;;3.30;;
58898;SDS011;44680;48.342;7.856;2022-12-29T10:53:19;6.18;;;2.90;;
58898;SDS011;44680;48.342;7.856;2022-12-29T10:55:46;3.47;;;2.72;;
58898;SDS011;44680;48.342;7.856;2022-12-29T10:58:13;4.47;;;2.70;;
58898;SDS011;44680;48.342;7.856;2022-12-29T11:00:38;4.88;;;2.90;;
58898;SDS011;44680;48.342;7.856;2022-12-29T11:05:57;6.95;;;3.20;;
58898;SDS011;44680;48.342;7.856;2022-12-29T11:08:38;6.05;;;3.95;;
58898;SDS011;44680;48.342;7.856;2022-12-29T11:11:07;10.15;;;3.53;;
58898;SDS011;44680;48.342;7.856;2022-12-29T11:13:34;5.35;;;3.20;;
58898;SDS011;44680;48.342;7.856;2022-12-29T11:16:27;5.32;;;3.10;;
58898;SDS011;44680;48.342;7.856;2022-12-29T11:18:55;6.28;;;3.40;;
58898;SDS011;44680;48.342;7.856;2022-12-29T11:23:59;9.95;;;3.45;;
58898;SDS011;44680;48.342;7.856;2022-12-29T11:26:26;8.32;;;3.85;;
58898;SDS011;44680;48.342;7.856;2022-12-29T11:29:09;4.63;;;3.75;;
58898;SDS011;44680;48.342;7.856;2022-12-29T11:31:46;7.38;;;3.97;;
58898;SDS011;44680;48.342;7.856;2022-12-29T11:34:31;5.70;;;3.13;;
58898;SDS011;44680;48.342;7.856;2022-12-29T11:37:00;10.13;;;4.72;;
58898;SDS011;44680;48.342;7.856;2022-12-29T11:42:13;6.68;;;3.35;;
58898;SDS011;44680;48.342;7.856;2022-12-29T11:44:44;5.03;;;3.30;;
58898;SDS011;44680;48.342;7.856;2022-12-29T11:47:30;5.03;;;3.63;;
58898;SDS011;44680;48.342;7.856;2022-12-29T11:49:57;6.57;;;3.58;;
58898;SDS011;44680;48.342;7.856;2022-12-29T11:52:25;6.50;;;3.28;;
58898;SDS011;44680;48.342;7.856;2022-12-29T11:54:52;6.00;;;3.35;;
58898;SDS011;44680;48.342;7.856;2022-12-29T11:57:18;5.80;;;3.90;;
58898;SDS011;44680;48.342;7.856;2022-12-29T11:59:54;7.72;;;4.38;;
58898;SDS011;44680;48.342;7.856;2022-12-29T12:05:30;5.05;;;3.53;;
58898;SDS011;44680;48.342;7.856;2022-12-29T12:10:28;7.68;;;3.60;;
58898;SDS011;44680;48.342;7.856;2022-12-29T12:13:08;8.00;;;3.85;;
58898;SDS011;44680;48.342;7.856;2022-12-29T12:15:43;7.38;;;3.50;;
58898;SDS011;44680;48.342;7.856;2022-12-29T12:18:41;7.40;;;3.53;;
58898;SDS011;44680;48.342;7.856;2022-12-29T12:23:47;5.10;;;3.40;;
58898;SDS011;44680;48.342;7.856;2022-12-29T12:26:28;6.30;;;3.30;;
58898;SDS011;44680;48.342;7.856;2022-12-29T12:28:59;8.65;;;3.42;;
58898;SDS011;44680;48.342;7.856;2022-12-29T12:34:17;4.90;;;3.50;;
58898;SDS011;44680;48.342;7.856;2022-12-29T12:51:22;7.70;;;3.60;;
58898;SDS011;44680;48.342;7.856;2022-12-29T13:11:45;8.77;;;4.30;;
58898;SDS011;44680;48.342;7.856;2022-12-29T13:22:41;10.77;;;4.07;;
58898;SDS011;44680;48.342;7.856;2022-12-29T13:31:00;4.75;;;3.22;;
58898;SDS011;44680;48.342;7.856;2022-12-29T13:33:41;9.00;;;2.80;;
58898;SDS011;44680;48.342;7.856;2022-12-29T13:36:22;6.50;;;3.58;;
58898;SDS011;44680;48.342;7.856;2022-12-29T13:39:52;9.60;;;3.55;;
58898;SDS011;44680;48.342;7.856;2022-12-29T13:42:05;6.40;;;3.55;;
58898;SDS011;44680;48.342;7.856;2022-12-29T13:44:33;6.75;;;3.08;;
58898;SDS011;44680;48.342;7.856;2022-12-29T13:47:02;4.75;;;3.13;;
58898;SDS011;44680;48.342;7.856;2022-12-29T13:49:44;4.03;;;3.00;;
58898;SDS011;44680;48.342;7.856;2022-12-29T13:52:18;7.65;;;4.20;;
58898;SDS011;44680;48.342;7.856;2022-12-29T13:54:56;6.43;;;3.42;;
58898;SDS011;44680;48.342;7.856;2022-12-29T13:57:35;5.55;;;3.47;;
58898;SDS011;44680;48.342;7.856;2022-12-29T14:00:13;7.35;;;4.10;;
58898;SDS011;44680;48.342;7.856;2022-12-29T14:03:43;7.10;;;3.63;;
58898;SDS011;44680;48.342;7.856;2022-12-29T14:08:56;5.47;;;3.17;;
58898;SDS011;44680;48.342;7.856;2022-12-29T14:11:24;9.52;;;3.47;;
58898;SDS011;44680;48.342;7.856;2022-12-29T14:13:55;8.48;;;4.05;;
58898;SDS011;44680;48.342;7.856;2022-12-29T14:16:24;5.18;;;3.03;;
58898;SDS011;44680;48.342;7.856;2022-12-29T14:19:03;4.88;;;3.35;;
58898;SDS011;44680;48.342;7.856;2022-12-29T14:21:31;6.53;;;3.10;;
58898;SDS011;44680;48.342;7.856;2022-12-29T14:29:41;5.90;;;3.45;;
58898;SDS011;44680;48.342;7.856;2022-12-29T14:33:00;9.15;;;3.30;;
58898;SDS011;44680;48.342;7.856;2022-12-29T14:35:00;8.65;;;3.72;;
58898;SDS011;44680;48.342;7.856;2022-12-29T14:38:18;6.60;;;3.25;;
58898;SDS011;44680;48.342;7.856;2022-12-29T14:40:46;7.68;;;3.60;;
58898;SDS011;44680;48.342;7.856;2022-12-29T14:43:22;9.48;;;3.60;;
58898;SDS011;44680;48.342;7.856;2022-12-29T14:46:08;6.25;;;3.47;;
58898;SDS011;44680;48.342;7.856;2022-12-29T14:48:38;9.73;;;3.40;;
58898;SDS011;44680;48.342;7.856;2022-12-29T14:51:16;4.82;;;3.47;;
58898;SDS011;44680;48.342;7.856;2022-12-29T14:53:45;7.13;;;3.38;;
58898;SDS011;44680;48.342;7.856;2022-12-29T14:56:11;5.68;;;3.53;;
58898;SDS011;44680;48.342;7.856;2022-12-29T14:58:46;12.35;;;4.00;;
58898;SDS011;44680;48.342;7.856;2022-12-29T15:01:37;12.18;;;4.07;;
58898;SDS011;44680;48.342;7.856;2022-12-29T15:07:07;8.15;;;4.25;;
58898;SDS011;44680;48.342;7.856;2022-12-29T15:09:35;6.70;;;4.22;;
58898;SDS011;44680;48.342;7.856;2022-12-29T15:12:17;7.18;;;3.80;;
58898;SDS011;44680;48.342;7.856;2022-12-29T15:14:51;5.68;;;3.35;;
58898;SDS011;44680;48.342;7.856;2022-12-29T15:17:25;6.45;;;3.38;;
58898;SDS011;44680;48.342;7.856;2022-12-29T15:19:58;6.72;;;3.42;;
58898;SDS011;44680;48.342;7.856;2022-12-29T15:22:25;5.25;;;3.10;;
58898;SDS011;44680;48.342;7.856;2022-12-29T15:24:51;5.03;;;2.88;;
58898;SDS011;44680;48.342;7.856;2022-12-29T15:27:21;5.80;;;2.83;;
58898;SDS011;44680;48.342;7.856;2022-12-29T15:29:52;8.15;;;4.43;;
58898;SDS011;44680;48.342;7.856;2022-12-29T15:32:22;5.43;;;3.60;;
58898;SDS011;44680;48.342;7.856;2022-12-29T15:34:50;7.72;;;3.90;;
58898;SDS011;44680;48.342;7.856;2022-12-29T15:37:21;3.28;;;2.58;;
58898;SDS011;44680;48.342;7.856;2022-12-29T15:39:46;9.05;;;4.18;;
58898;SDS011;44680;48.342;7.856;2022-12-29T15:45:05;30.05;;;12.55;;
58898;SDS011;44680;48.342;7.856;2022-12-29T15:47:31;81.00;;;29.30;;
58898;SDS011;44680;48.342;7.856;2022-12-29T15:50:04;38.45;;;15.30;;
58898;SDS011;44680;48.342;7.856;2022-12-29T15:52:31;25.98;;;15.30;;
58898;SDS011;44680;48.342;7.856;2022-12-29T15:54:58;42.05;;;18.05;;
58898;SDS011;44680;48.342;7.856;2022-12-29T15:57:26;31.13;;;13.23;;
58898;SDS011;44680;48.342;7.856;2022-12-29T15:59:54;23.08;;;8.55;;
58898;SDS011;44680;48.342;7.856;2022-12-29T16:02:23;30.85;;;10.05;;
58898;SDS011;44680;48.342;7.856;2022-12-29T16:04:49;22.17;;;9.95;;
58898;SDS011;44680;48.342;7.856;2022-12-29T16:07:26;12.50;;;7.40;;
58898;SDS011;44680;48.342;7.856;2022-12-29T16:09:57;16.38;;;7.88;;
58898;SDS011;44680;48.342;7.856;2022-12-29T16:12:25;16.05;;;7.05;;
58898;SDS011;44680;48.342;7.856;2022-12-29T16:14:56;11.60;;;5.90;;
58898;SDS011;44680;48.342;7.856;2022-12-29T16:17:27;13.77;;;5.30;;
58898;SDS011;44680;48.342;7.856;2022-12-29T16:19:55;10.02;;;4.45;;
58898;SDS011;44680;48.342;7.856;2022-12-29T16:22:26;21.63;;;10.88;;
58898;SDS011;44680;48.342;7.856;2022-12-29T16:24:55;21.05;;;9.05;;
58898;SDS011;44680;48.342;7.856;2022-12-29T16:27:23;19.02;;;9.57;;
58898;SDS011;44680;48.342;7.856;2022-12-29T16:29:53;13.77;;;5.60;;
58898;SDS011;44680;48.342;7.856;2022-12-29T16:34:51;38.28;;;19.40;;
58898;SDS011;44680;48.342;7.856;2022-12-29T16:37:31;32.67;;;16.85;;
58898;SDS011;44680;48.342;7.856;2022-12-29T16:43:02;10.73;;;4.63;;
58898;SDS011;44680;48.342;7.856;2022-12-29T16:48:15;6.43;;;3.80;;
58898;SDS011;44680;48.342;7.856;2022-12-29T16:50:42;8.25;;;4.40;;
58898;SDS011;44680;48.342;7.856;2022-12-29T16:53:21;8.82;;;4.85;;
58898;SDS011;44680;48.342;7.856;2022-12-29T16:55:52;6.38;;;4.30;;
58898;SDS011;44680;48.342;7.856;2022-12-29T16:58:18;12.30;;;5.60;;
58898;SDS011;44680;48.342;7.856;2022-12-29T17:00:46;13.85;;;6.80;;
58898;SDS011;44680;48.342;7.856;2022-12-29T17:03:12;12.80;;;6.30;;
58898;SDS011;44680;48.342;7.856;2022-12-29T17:05:38;11.02;;;6.28;;
58898;SDS011;44680;48.342;7.856;2022-12-29T17:08:13;27.35;;;11.32;;
58898;SDS011;44680;48.342;7.856;2022-12-29T17:10:54;18.80;;;7.93;;